createdAt,value
2023-07-26T00:02:05.773Z,21.22
2023-07-26T00:04:32.448Z,22.53
2023-07-26T00:07:00.772Z,23.22
2023-07-26T00:09:27.544Z,22.35
2023-07-26T00:11:54.394Z,21.49
2023-07-26T00:14:21.019Z,21.34
2023-07-26T00:16:50.166Z,22.59
2023-07-26T00:19:20.235Z,23.30
2023-07-26T00:21:47.720Z,22.43
2023-07-26T00:24:14.512Z,21.53
2023-07-26T00:26:41.570Z,21.42
2023-07-26T00:29:08.246Z,22.63
2023-07-26T00:31:34.973Z,23.53
2023-07-26T00:34:01.689Z,22.87
2023-07-26T00:36:28.796Z,21.90
2023-07-26T00:38:56.605Z,21.33
2023-07-26T00:41:23.504Z,22.17
2023-07-26T00:43:50.491Z,23.31
2023-07-26T00:46:17.654Z,23.01
2023-07-26T00:48:44.556Z,22.03
2023-07-26T00:51:11.854Z,21.28
2023-07-26T00:53:38.894Z,21.21
2023-07-26T00:56:06.052Z,22.46
2023-07-26T00:58:33.178Z,23.06
2023-07-26T01:01:00.805Z,22.20
2023-07-26T01:03:28.238Z,21.35
2023-07-26T01:06:37.183Z,21.12
2023-07-26T01:09:32.537Z,22.61
2023-07-26T01:12:07.702Z,23.10
2023-07-26T01:14:40.530Z,22.03
2023-07-26T01:17:07.413Z,21.14
2023-07-26T01:19:34.031Z,20.97
2023-07-26T01:22:00.819Z,22.04
2023-07-26T01:24:27.543Z,22.31
2023-07-26T01:26:54.226Z,21.35
2023-07-26T01:29:20.837Z,21.06
2023-07-26T01:31:47.527Z,22.05
2023-07-26T01:34:14.181Z,22.40
2023-07-26T01:36:41.819Z,21.48
2023-07-26T01:39:10.011Z,21.09
2023-07-26T01:41:37.658Z,22.04
2023-07-26T01:44:04.991Z,22.75
2023-07-26T01:46:31.696Z,22.02
2023-07-26T01:48:58.361Z,21.10
2023-07-26T01:51:25.052Z,20.93
2023-07-26T01:53:51.665Z,22.08
2023-07-26T01:56:18.292Z,23.07
2023-07-26T01:58:44.973Z,23.08
2023-07-26T02:01:11.567Z,21.99
2023-07-26T02:03:38.203Z,21.11
2023-07-26T02:06:04.845Z,20.89
2023-07-26T02:08:31.423Z,22.03
2023-07-26T02:10:57.982Z,23.07
2023-07-26T02:13:24.681Z,22.89
2023-07-26T02:15:51.394Z,21.83
2023-07-26T02:18:18.834Z,20.98
2023-07-26T02:20:45.384Z,20.78
2023-07-26T02:23:11.978Z,21.95
2023-07-26T02:25:38.640Z,22.63
2023-07-26T02:28:05.307Z,21.81
2023-07-26T02:30:31.927Z,20.95
2023-07-26T02:32:58.669Z,20.32
2023-07-26T02:35:25.314Z,20.38
2023-07-26T02:37:51.902Z,21.64
2023-07-26T02:40:18.462Z,22.56
2023-07-26T02:42:45.034Z,21.98
2023-07-26T02:45:11.652Z,21.01
2023-07-26T02:47:38.315Z,20.28
2023-07-26T02:50:05.935Z,20.12
2023-07-26T02:52:32.682Z,21.31
2023-07-26T02:54:59.714Z,22.40
2023-07-26T02:57:26.486Z,22.16
2023-07-26T02:59:53.115Z,21.13
2023-07-26T03:02:20.054Z,20.32
2023-07-26T03:04:46.632Z,20.12
2023-07-26T03:07:13.306Z,21.30
2023-07-26T03:09:39.970Z,22.42
2023-07-26T03:12:07.239Z,22.17
2023-07-26T03:14:33.983Z,21.15
2023-07-26T03:17:15.924Z,20.69
2023-07-26T03:19:47.158Z,21.89
2023-07-26T03:22:13.975Z,22.61
2023-07-26T03:24:40.554Z,21.81
2023-07-26T03:27:08.769Z,20.90
2023-07-26T03:29:35.528Z,20.70
2023-07-26T03:32:02.133Z,21.85
2023-07-26T03:34:28.756Z,22.85
2023-07-26T03:36:55.485Z,23.00
2023-07-26T03:39:22.236Z,21.95
2023-07-26T03:41:48.725Z,21.04
2023-07-26T03:44:15.443Z,20.76
2023-07-26T03:46:42.038Z,21.89
2023-07-26T03:49:08.580Z,22.84
2023-07-26T03:51:35.156Z,22.24
2023-07-26T03:54:01.853Z,21.24
2023-07-26T03:56:28.441Z,20.55
2023-07-26T03:58:55.018Z,20.97
2023-07-26T04:01:21.827Z,22.19
2023-07-26T04:03:48.958Z,22.75
2023-07-26T04:06:15.684Z,21.85
2023-07-26T04:08:42.286Z,20.95
2023-07-26T04:11:08.892Z,20.79
2023-07-26T04:13:35.436Z,21.96
2023-07-26T04:16:02.100Z,22.97
2023-07-26T04:18:28.675Z,22.90
2023-07-26T04:20:55.438Z,21.86
2023-07-26T04:23:22.005Z,21.02
2023-07-26T04:25:50.793Z,20.96
2023-07-26T04:28:17.388Z,22.14
2023-07-26T04:30:45.258Z,22.71
2023-07-26T04:33:12.031Z,21.86
2023-07-26T04:35:38.839Z,21.00
2023-07-26T04:38:05.441Z,20.87
2023-07-26T04:40:32.222Z,22.06
2023-07-26T04:42:58.884Z,22.90
2023-07-26T04:45:25.476Z,22.18
2023-07-26T04:47:52.153Z,21.25
2023-07-26T04:50:18.835Z,20.60
2023-07-26T04:52:45.423Z,20.88
2023-07-26T04:55:12.022Z,22.22
2023-07-26T04:57:40.140Z,22.85
2023-07-26T05:00:08.381Z,22.00
2023-07-26T05:02:36.474Z,21.12
2023-07-26T05:05:03.418Z,20.98
2023-07-26T05:07:30.049Z,22.19
2023-07-26T05:09:56.700Z,23.14
2023-07-26T05:12:23.354Z,22.53
2023-07-26T05:14:50.074Z,21.61
2023-07-26T05:17:17.588Z,20.97
2023-07-26T05:19:44.203Z,21.43
2023-07-26T05:22:12.536Z,22.74
2023-07-26T05:24:39.409Z,23.18
2023-07-26T05:27:06.750Z,22.23
2023-07-26T05:29:33.283Z,21.42
2023-07-26T05:31:59.947Z,20.84
2023-07-26T05:34:26.602Z,21.04
2023-07-26T05:36:53.246Z,22.40
2023-07-26T05:39:19.968Z,23.16
2023-07-26T05:41:46.713Z,22.38
2023-07-26T05:44:13.361Z,21.54
2023-07-26T05:46:39.952Z,21.35
2023-07-26T05:49:06.865Z,22.54
2023-07-26T05:51:33.730Z,23.25
2023-07-26T05:54:00.551Z,22.42
2023-07-26T05:56:27.339Z,21.60
2023-07-26T05:58:54.040Z,21.39
2023-07-26T06:01:20.762Z,22.58
2023-07-26T06:03:51.986Z,23.28
2023-07-26T06:06:18.948Z,22.45
2023-07-26T06:08:45.780Z,21.61
2023-07-26T06:11:12.378Z,21.08
2023-07-26T06:13:39.063Z,21.80
2023-07-26T06:16:05.716Z,23.09
2023-07-26T06:18:32.369Z,23.14
2023-07-26T06:20:59.281Z,22.19
2023-07-26T06:23:26.251Z,21.44
2023-07-26T06:25:52.918Z,20.95
2023-07-26T06:28:19.635Z,21.63
2023-07-26T06:30:46.399Z,22.97
2023-07-26T06:33:13.135Z,23.42
2023-07-26T06:35:40.256Z,22.51
2023-07-26T06:38:09.182Z,21.70
2023-07-26T06:40:35.824Z,21.13
2023-07-26T06:43:02.905Z,20.71
2023-07-26T06:45:29.604Z,20.78
2023-07-26T06:47:56.508Z,22.15
2023-07-26T06:50:23.165Z,22.92
2023-07-26T06:52:49.731Z,22.16
2023-07-26T06:55:16.475Z,21.42
2023-07-26T06:57:43.245Z,20.89
2023-07-26T07:00:13.178Z,20.52
2023-07-26T07:02:40.310Z,20.63
2023-07-26T07:05:08.359Z,22.05
2023-07-26T07:07:34.959Z,22.83
2023-07-26T07:10:01.662Z,22.10
2023-07-26T07:12:28.369Z,21.40
2023-07-26T07:14:55.082Z,20.91
2023-07-26T07:17:21.903Z,20.57
2023-07-26T07:19:48.657Z,20.30
2023-07-26T07:22:15.371Z,20.10
2023-07-26T07:24:42.136Z,20.41
2023-07-26T07:27:08.893Z,21.91
2023-07-26T07:29:35.473Z,22.73
2023-07-26T07:32:16.078Z,22.06
2023-07-26T07:34:47.883Z,21.36
2023-07-26T07:37:14.495Z,20.94
2023-07-26T07:39:41.309Z,20.67
2023-07-26T07:42:07.986Z,20.48
2023-07-26T07:44:34.799Z,20.69
2023-07-26T07:47:03.793Z,22.16
2023-07-26T07:49:32.572Z,23.00
2023-07-26T07:51:59.293Z,22.34
2023-07-26T07:54:26.948Z,21.71
2023-07-26T07:56:53.501Z,21.28
2023-07-26T07:59:20.269Z,20.97
2023-07-26T08:01:47.014Z,20.72
2023-07-26T08:04:13.787Z,20.51
2023-07-26T08:06:40.585Z,20.33
2023-07-26T08:09:07.587Z,20.16
2023-07-26T08:11:34.527Z,20.00
2023-07-26T08:14:01.653Z,20.24
2023-07-26T08:16:28.391Z,21.69
2023-07-26T08:18:54.982Z,22.16
2023-07-26T08:21:21.591Z,21.47
2023-07-26T08:23:48.183Z,20.89
2023-07-26T08:26:15.407Z,20.51
2023-07-26T08:28:42.163Z,20.22
2023-07-26T08:31:09.026Z,20.00
2023-07-26T08:33:35.644Z,20.19
2023-07-26T08:36:02.428Z,21.64
2023-07-26T08:38:29.058Z,22.47
2023-07-26T08:40:55.793Z,21.81
2023-07-26T08:43:24.303Z,21.14
2023-07-26T08:45:53.636Z,20.70
2023-07-26T08:48:22.282Z,20.41
2023-07-26T08:50:49.410Z,20.95
2023-07-26T08:53:16.212Z,22.39
2023-07-26T08:55:42.802Z,22.88
2023-07-26T08:58:09.447Z,22.10
2023-07-26T09:00:36.185Z,21.44
2023-07-26T09:03:03.633Z,20.99
2023-07-26T09:05:30.394Z,20.68
2023-07-26T09:07:56.978Z,20.44
2023-07-26T09:10:28.405Z,20.23
2023-07-26T09:13:16.074Z,20.06
2023-07-26T09:15:44.174Z,20.48
2023-07-26T09:18:12.739Z,22.14
2023-07-26T09:20:39.450Z,22.93
2023-07-26T09:23:06.070Z,22.25
2023-07-26T09:25:43.311Z,21.60
2023-07-26T09:28:15.808Z,21.16
2023-07-26T09:30:46.238Z,20.88
2023-07-26T09:33:13.149Z,20.69
2023-07-26T09:35:45.719Z,20.52
2023-07-26T09:38:13.980Z,20.37
2023-07-26T09:40:40.752Z,20.28
2023-07-26T09:43:07.726Z,20.19
2023-07-26T09:45:35.322Z,20.11
2023-07-26T09:50:44.043Z,19.99
2023-07-26T09:53:11.900Z,19.96
2023-07-26T09:55:38.644Z,19.91
2023-07-26T09:58:05.473Z,19.87
2023-07-26T10:00:33.658Z,19.82
2023-07-26T10:03:06.520Z,19.76
2023-07-26T10:05:43.754Z,19.69
2023-07-26T10:08:10.994Z,19.64
2023-07-26T10:10:37.881Z,19.62
2023-07-26T10:13:05.433Z,19.62
2023-07-26T10:15:32.825Z,19.64
2023-07-26T10:18:01.024Z,19.68
2023-07-26T10:20:27.988Z,19.72
2023-07-26T10:23:01.950Z,19.77
2023-07-26T10:25:29.457Z,19.81
2023-07-26T10:27:56.650Z,19.83
2023-07-26T10:30:23.448Z,19.88
2023-07-26T10:32:51.963Z,19.94
2023-07-26T10:35:33.537Z,20.04
2023-07-26T10:38:03.653Z,20.15
2023-07-26T10:40:33.664Z,20.28
2023-07-26T10:43:35.397Z,20.42
2023-07-26T10:46:10.318Z,20.59
2023-07-26T10:48:41.210Z,20.71
2023-07-26T10:51:23.894Z,20.80
2023-07-26T10:53:50.587Z,20.92
2023-07-26T10:56:26.129Z,21.03
2023-07-26T10:58:58.660Z,21.12
2023-07-26T11:01:44.702Z,21.23
2023-07-26T11:04:16.011Z,21.38
2023-07-26T11:06:55.833Z,21.55
2023-07-26T11:09:32.657Z,21.73
2023-07-26T11:11:59.381Z,21.87
2023-07-26T11:14:31.233Z,21.97
2023-07-26T11:17:01.445Z,22.06
2023-07-26T11:19:29.684Z,22.14
2023-07-26T11:22:06.307Z,22.17
2023-07-26T11:24:33.062Z,22.20
2023-07-26T11:27:05.885Z,22.22
2023-07-26T11:29:34.060Z,22.21
2023-07-26T11:32:00.892Z,22.18
2023-07-26T11:34:27.621Z,22.13
2023-07-26T11:37:12.433Z,22.08
2023-07-26T11:39:39.062Z,22.00
2023-07-26T11:42:06.401Z,21.92
2023-07-26T11:44:33.208Z,21.82
2023-07-26T11:47:03.861Z,21.73
2023-07-26T11:49:32.697Z,21.62
2023-07-26T11:51:59.345Z,21.52
2023-07-26T11:54:26.089Z,21.42
2023-07-26T11:56:52.795Z,21.33
2023-07-26T11:59:19.693Z,21.25
2023-07-26T12:01:48.037Z,21.16
2023-07-26T12:04:16.976Z,21.08
2023-07-26T12:06:45.202Z,21.00
2023-07-26T12:09:14.010Z,20.93
2023-07-26T12:11:49.530Z,20.90
2023-07-26T12:14:17.307Z,20.95
2023-07-26T12:16:52.833Z,21.02
2023-07-26T12:19:24.799Z,21.09
2023-07-26T12:21:51.926Z,21.14
2023-07-26T12:24:19.094Z,21.18
2023-07-26T12:26:48.125Z,21.22
2023-07-26T12:29:15.929Z,21.27
2023-07-26T12:31:42.685Z,21.34
2023-07-26T12:34:12.364Z,21.39
2023-07-26T12:36:41.714Z,21.46
2023-07-26T12:39:13.225Z,21.53
2023-07-26T12:41:44.917Z,21.64
2023-07-26T12:44:14.830Z,21.79
2023-07-26T12:49:12.319Z,22.11
2023-07-26T12:51:39.089Z,22.22
2023-07-26T12:54:06.100Z,22.27
2023-07-26T12:56:33.085Z,22.27
2023-07-26T12:59:07.114Z,22.27
2023-07-26T13:01:40.708Z,22.27
2023-07-26T13:04:09.080Z,22.25
2023-07-26T13:06:37.965Z,22.22
2023-07-26T13:09:05.789Z,22.19
2023-07-26T13:11:35.255Z,22.16
2023-07-26T13:14:02.546Z,22.13
2023-07-26T13:16:32.001Z,22.10
2023-07-26T13:19:03.969Z,22.05
2023-07-26T13:21:32.658Z,22.01
2023-07-26T13:23:59.643Z,21.97
2023-07-26T13:26:26.905Z,21.97
2023-07-26T13:28:53.637Z,22.02
2023-07-26T13:31:20.646Z,22.13
2023-07-26T13:33:51.044Z,22.28
2023-07-26T13:36:24.222Z,22.42
2023-07-26T13:38:51.289Z,22.52
2023-07-26T13:41:19.254Z,22.58
2023-07-26T13:43:45.993Z,22.61
2023-07-26T13:48:42.343Z,22.56
2023-07-26T13:51:10.184Z,22.53
2023-07-26T13:53:39.837Z,22.50
2023-07-26T13:56:08.344Z,22.47
2023-07-26T13:58:35.400Z,22.48
2023-07-26T14:01:02.317Z,22.49
2023-07-26T14:03:29.178Z,22.52
2023-07-26T14:05:55.928Z,22.55
2023-07-26T14:08:24.615Z,22.57
2023-07-26T14:10:51.231Z,22.60
2023-07-26T14:13:20.779Z,22.63
2023-07-26T14:18:29.175Z,22.76
2023-07-26T14:20:55.888Z,22.81
2023-07-26T14:23:22.817Z,22.85
2023-07-26T14:25:49.628Z,22.88
2023-07-26T14:28:16.250Z,22.92
2023-07-26T14:30:43.093Z,22.94
2023-07-26T14:33:09.726Z,22.94
2023-07-26T14:35:36.347Z,22.94
2023-07-26T14:38:03.097Z,22.95
2023-07-26T14:40:29.675Z,22.98
2023-07-26T14:42:56.250Z,22.99
2023-07-26T14:45:23.377Z,23.02
2023-07-26T14:47:54.768Z,23.05
2023-07-26T14:50:30.513Z,23.07
2023-07-26T14:52:57.773Z,23.09
2023-07-26T14:55:25.889Z,23.13
2023-07-26T14:57:57.376Z,23.18
2023-07-26T15:00:28.745Z,23.24
2023-07-26T15:03:37.819Z,23.32
2023-07-26T15:06:05.548Z,23.33
2023-07-26T15:08:33.235Z,23.33
2023-07-26T15:11:02.211Z,23.32
2023-07-26T15:13:31.885Z,23.29
2023-07-26T15:15:59.581Z,23.23
2023-07-26T15:18:30.172Z,23.15
2023-07-26T15:21:01.996Z,23.06
2023-07-26T15:23:42.109Z,23.01
2023-07-26T15:26:09.336Z,23.00
2023-07-26T15:28:36.469Z,23.00
2023-07-26T15:31:03.315Z,22.97
2023-07-26T15:33:33.955Z,22.92
2023-07-26T15:36:01.654Z,22.91
2023-07-26T15:38:28.632Z,22.90
2023-07-26T15:40:55.473Z,22.90
2023-07-26T15:43:23.949Z,22.93
2023-07-26T15:48:21.022Z,22.90
2023-07-26T15:53:18.271Z,22.89
2023-07-26T15:55:45.113Z,22.90
2023-07-26T15:58:15.291Z,22.90
2023-07-26T16:00:42.164Z,22.86
2023-07-26T16:03:09.648Z,22.81
2023-07-26T16:05:40.463Z,22.78
2023-07-26T16:10:37.522Z,22.74
2023-07-26T16:13:04.018Z,22.72
2023-07-26T16:20:29.533Z,22.68
2023-07-26T16:22:56.253Z,22.67
2023-07-26T16:25:23.043Z,22.67
2023-07-26T16:27:49.639Z,22.68
2023-07-26T16:30:16.453Z,22.68
2023-07-26T16:32:43.595Z,22.66
2023-07-26T16:35:10.141Z,22.64
2023-07-26T16:37:36.700Z,22.62
2023-07-26T16:40:03.901Z,22.61
2023-07-26T16:42:30.505Z,22.61
2023-07-26T16:44:57.179Z,22.58
2023-07-26T16:47:23.766Z,22.54
2023-07-26T16:49:51.123Z,22.48
2023-07-26T16:52:19.581Z,22.42
2023-07-26T16:54:46.193Z,22.34
2023-07-26T16:57:12.728Z,22.28
2023-07-26T16:59:39.348Z,22.19
2023-07-26T17:02:11.428Z,22.13
2023-07-26T17:04:38.156Z,22.08
2023-07-26T17:07:06.869Z,21.98
2023-07-26T17:09:34.001Z,21.88
2023-07-26T17:12:00.622Z,21.78
2023-07-26T17:14:27.286Z,21.68
2023-07-26T17:16:53.795Z,21.59
2023-07-26T17:19:20.377Z,21.51
2023-07-26T17:21:46.890Z,21.41
2023-07-26T17:24:13.453Z,21.31
2023-07-26T17:26:40.038Z,21.21
2023-07-26T17:29:06.762Z,21.11
2023-07-26T17:31:33.543Z,21.03
2023-07-26T17:34:03.480Z,20.92
2023-07-26T17:36:30.400Z,20.80
2023-07-26T17:38:57.031Z,20.65
2023-07-26T17:41:23.721Z,20.50
2023-07-26T17:43:50.704Z,20.34
2023-07-26T17:46:17.367Z,20.20
2023-07-26T17:48:44.080Z,20.04
2023-07-26T17:51:11.508Z,19.88
2023-07-26T17:53:38.297Z,19.74
2023-07-26T17:56:05.640Z,19.60
2023-07-26T17:58:33.974Z,19.47
2023-07-26T18:01:00.695Z,19.33
2023-07-26T18:03:27.694Z,19.21
2023-07-26T18:05:56.818Z,19.09
2023-07-26T18:08:24.144Z,18.96
2023-07-26T18:10:56.545Z,18.85
2023-07-26T18:13:24.075Z,18.73
2023-07-26T18:16:12.739Z,18.62
2023-07-26T18:18:45.197Z,18.48
2023-07-26T18:21:12.978Z,18.36
2023-07-26T18:23:45.227Z,18.25
2023-07-26T18:26:27.045Z,18.16
2023-07-26T18:28:54.502Z,18.08
2023-07-26T18:31:21.095Z,18.01
2023-07-26T18:33:47.742Z,17.94
2023-07-26T18:36:14.961Z,17.88
2023-07-26T18:38:44.395Z,17.80
2023-07-26T18:41:10.917Z,17.73
2023-07-26T18:43:37.596Z,17.67
2023-07-26T18:46:04.276Z,17.62
2023-07-26T18:48:31.604Z,17.56
2023-07-26T18:50:59.807Z,17.51
2023-07-26T18:53:26.708Z,17.46
2023-07-26T18:55:53.314Z,17.39
2023-07-26T18:58:19.844Z,17.35
2023-07-26T19:00:46.352Z,17.28
2023-07-26T19:03:13.225Z,17.23
2023-07-26T19:05:40.630Z,17.17
2023-07-26T19:08:07.612Z,17.11
2023-07-26T19:10:41.516Z,17.07
2023-07-26T19:13:10.341Z,17.02
2023-07-26T19:15:37.181Z,16.97
2023-07-26T19:18:05.525Z,16.94
2023-07-26T19:20:32.862Z,16.90
2023-07-26T19:23:01.679Z,16.86
2023-07-26T19:25:32.104Z,16.83
2023-07-26T19:27:58.835Z,16.79
2023-07-26T19:30:28.150Z,16.75
2023-07-26T19:32:55.915Z,16.72
2023-07-26T19:35:28.621Z,16.69
2023-07-26T19:37:55.484Z,16.66
2023-07-26T19:40:22.231Z,16.62
2023-07-26T19:42:49.301Z,16.59
2023-07-26T19:45:19.839Z,16.56
2023-07-26T19:47:57.198Z,16.52
2023-07-26T19:50:24.603Z,16.90
2023-07-26T19:52:53.937Z,18.56
2023-07-26T19:55:21.083Z,19.51
2023-07-26T19:57:49.257Z,18.92
2023-07-26T20:00:16.043Z,18.28
2023-07-26T20:02:42.897Z,17.88
2023-07-26T20:05:09.972Z,17.61
2023-07-26T20:07:36.804Z,17.40
2023-07-26T20:10:04.438Z,17.24
2023-07-26T20:12:33.925Z,17.10
2023-07-26T20:15:00.573Z,16.98
2023-07-26T20:17:27.999Z,17.24
2023-07-26T20:19:54.539Z,18.80
2023-07-26T20:22:26.523Z,19.77
2023-07-26T20:24:53.326Z,19.11
2023-07-26T20:27:42.648Z,18.43
2023-07-26T20:30:10.861Z,17.92
2023-07-26T20:32:48.916Z,17.62
2023-07-26T20:35:58.742Z,17.38
2023-07-26T20:39:20.334Z,17.14
2023-07-26T20:42:31.793Z,18.09
2023-07-26T20:45:26.667Z,19.89
2023-07-26T20:51:02.073Z,18.69
2023-07-26T20:53:56.141Z,18.06
2023-07-26T20:57:42.783Z,17.66
2023-07-26T20:59:43.436Z,17.34
2023-07-26T21:02:45.679Z,17.11
2023-07-26T21:05:28.421Z,17.82
2023-07-26T21:08:32.540Z,19.60
2023-07-26T21:11:06.738Z,19.47
2023-07-26T21:13:38.891Z,18.59
2023-07-26T21:19:10.876Z,17.48
2023-07-26T21:21:41.298Z,17.47
2023-07-26T21:24:23.253Z,18.87
2023-07-26T21:26:55.570Z,19.65
2023-07-26T21:29:39.542Z,18.81
2023-07-26T21:32:24.201Z,17.99
2023-07-26T21:35:07.078Z,17.45
2023-07-26T21:37:43.081Z,17.08
2023-07-26T21:40:25.045Z,17.39
2023-07-26T21:42:59.136Z,18.95
2023-07-26T21:45:27.111Z,19.69
2023-07-26T21:47:55.291Z,18.85
2023-07-26T21:50:30.621Z,18.02
2023-07-26T21:52:57.623Z,17.45
2023-07-26T21:55:33.499Z,17.05
2023-07-26T21:58:00.296Z,16.70
2023-07-26T22:00:27.310Z,17.26
2023-07-26T22:02:54.248Z,18.80
2023-07-26T22:05:21.131Z,19.44
2023-07-26T22:07:47.990Z,18.59
2023-07-26T22:10:14.767Z,17.77
2023-07-26T22:12:41.500Z,17.21
2023-07-26T22:15:09.087Z,16.79
2023-07-26T22:17:36.140Z,16.95
2023-07-26T22:20:04.048Z,18.36
2023-07-26T22:22:30.819Z,19.19
2023-07-26T22:24:57.522Z,18.41
2023-07-26T22:27:24.576Z,17.59
2023-07-26T22:29:51.376Z,17.02
2023-07-26T22:32:18.149Z,16.97
2023-07-26T22:34:45.236Z,18.31
2023-07-26T22:37:12.184Z,19.14
2023-07-26T22:39:38.909Z,18.33
2023-07-26T22:42:05.773Z,17.50
2023-07-26T22:44:32.436Z,16.95
2023-07-26T22:46:59.124Z,16.53
2023-07-26T22:49:25.949Z,16.70
2023-07-26T22:51:52.572Z,18.14
2023-07-26T22:54:21.187Z,18.98
2023-07-26T22:56:48.120Z,18.15
2023-07-26T22:59:14.828Z,17.31
2023-07-26T23:01:41.601Z,16.75
2023-07-26T23:04:08.298Z,16.79
2023-07-26T23:06:35.172Z,18.22
2023-07-26T23:09:02.045Z,18.99
2023-07-26T23:11:28.804Z,18.14
2023-07-26T23:13:55.704Z,17.31
2023-07-26T23:16:22.530Z,16.74
2023-07-26T23:18:49.318Z,16.71
2023-07-26T23:21:16.007Z,18.09
2023-07-26T23:23:42.690Z,18.89
2023-07-26T23:26:09.573Z,18.05
2023-07-26T23:28:36.469Z,17.23
2023-07-26T23:31:06.639Z,16.65
2023-07-26T23:33:33.551Z,16.67
2023-07-26T23:36:01.574Z,18.11
2023-07-26T23:38:28.273Z,18.89
2023-07-26T23:40:55.113Z,18.01
2023-07-26T23:43:21.798Z,17.18
2023-07-26T23:45:48.577Z,16.59
2023-07-26T23:48:15.319Z,16.66
2023-07-26T23:50:42.876Z,18.05
2023-07-26T23:53:09.530Z,18.77
2023-07-26T23:55:36.792Z,17.90
2023-07-26T23:58:03.700Z,17.08
